Estación Meteorológica Peña el Pijo (Robertgarden) [ 12/17/17 01:28:20 CET ]

Fecha Hora Presion(HPa) Temp (°C) Humedad % Rocio (°C) Viento ( m/s) Direccion Lluvia 1Hora(mm) Lluvia 24H(mm) LLuvia Total(mm)
2017-Oct-02 01:01:45 1015.600 12.5 78 8.8         1457.65
2017-Oct-02 02:01:48 1015.600 11.7 81 8.6         1457.65
2017-Oct-02 03:08:06 1015.600 11.0 82 8.0         1457.65
2017-Oct-02 04:01:51 1015.400 10.5 83 7.7         1457.65
2017-Oct-02 05:01:47 1015.400 9.9 85 7.4         1457.65
2017-Oct-02 06:01:43 1015.500 9.8 85 7.4         1457.65
2017-Oct-02 07:01:50 1015.500 11.2 86 8.9         1457.65
2017-Oct-02 08:01:52 1015.500 11.6 85 9.1         1457.65
2017-Oct-02 09:02:02 1015.600 10.9 86 8.6         1457.65
2017-Oct-02 10:01:49 1015.800 16.4 83 13.5         1457.65
2017-Oct-02 11:01:54 1016.600 21.2 64 14.1         1457.65
2017-Oct-02 12:01:42 1016.500 24.4 51 13.6         1457.65
2017-Oct-02 13:01:56 1016.100 25.8 46 13.3         1457.65
2017-Oct-02 14:01:46 1016.000 26.3 44 13.0         1457.65
2017-Oct-02 15:01:49 1015.400 25.9 43 12.3         1457.65
2017-Oct-02 16:01:41 1014.700 27.5 40 12.8         1457.65
2017-Oct-02 17:01:36 1014.900 25.3 44 12.1         1457.65
2017-Oct-02 18:01:42 1014.900 23.3 47 11.3         1457.65
2017-Oct-02 19:01:37 1015.100 21.9 50 11.0         1457.65
2017-Oct-02 20:01:44 1015.500 19.5 55 10.0         1457.65
2017-Oct-02 21:01:51 1015.900 17.8 60 9.9         1457.65
2017-Oct-02 22:01:35 1016.200 15.6 66 9.3         1457.65
2017-Oct-02 23:01:47 1016.600 13.6 70 8.2         1457.65

Temperatura Máxima:27°    Temperatura Mínima:
Presión Máxima:1016.600 Hpa    Presión Mínima:1014.700 Hpa


Volver